sensor_id;sensor_type;location;lat;lon;timestamp;pressure;altitude;pressure_sealevel;temperature;humidity
11041;BME280;5573;49.592;8.662;2022-09-20T00:02:38;100369.94;;;9.59;100.00
11041;BME280;5573;49.592;8.662;2022-09-20T00:05:26;100370.22;;;9.53;100.00
11041;BME280;5573;49.592;8.662;2022-09-20T00:08:15;100378.13;;;9.55;100.00
11041;BME280;5573;49.592;8.662;2022-09-20T00:11:06;100375.84;;;9.61;100.00
11041;BME280;5573;49.592;8.662;2022-09-20T00:13:57;100377.81;;;9.60;100.00
11041;BME280;5573;49.592;8.662;2022-09-20T00:16:45;100378.13;;;9.55;100.00
11041;BME280;5573;49.592;8.662;2022-09-20T00:19:33;100381.56;;;9.52;100.00
11041;BME280;5573;49.592;8.662;2022-09-20T00:22:21;100375.63;;;9.50;100.00
11041;BME280;5573;49.592;8.662;2022-09-20T00:25:09;100377.59;;;9.49;100.00
11041;BME280;5573;49.592;8.662;2022-09-20T00:27:58;100378.72;;;9.48;100.00
11041;BME280;5573;49.592;8.662;2022-09-20T00:30:46;100383.09;;;9.49;100.00
11041;BME280;5573;49.592;8.662;2022-09-20T00:33:34;100382.78;;;9.54;100.00
11041;BME280;5573;49.592;8.662;2022-09-20T00:36:40;100385.53;;;9.54;100.00
11041;BME280;5573;49.592;8.662;2022-09-20T00:39:28;100381.56;;;9.52;100.00
11041;BME280;5573;49.592;8.662;2022-09-20T00:42:16;100384.22;;;9.48;100.00
11041;BME280;5573;49.592;8.662;2022-09-20T00:45:09;100390.00;;;9.43;100.00
11041;BME280;5573;49.592;8.662;2022-09-20T00:48:05;100390.00;;;9.43;100.00
11041;BME280;5573;49.592;8.662;2022-09-20T00:50:59;100391.81;;;9.35;100.00
11041;BME280;5573;49.592;8.662;2022-09-20T00:53:49;100385.66;;;9.42;100.00
11041;BME280;5573;49.592;8.662;2022-09-20T00:56:39;100385.97;;;9.37;100.00
11041;BME280;5573;49.592;8.662;2022-09-20T00:59:32;100383.56;;;9.35;100.00
11041;BME280;5573;49.592;8.662;2022-09-20T01:02:26;100378.00;;;9.32;100.00
11041;BME280;5573;49.592;8.662;2022-09-20T01:05:16;100378.50;;;9.38;100.00
11041;BME280;5573;49.592;8.662;2022-09-20T01:08:05;100382.63;;;9.28;100.00
11041;BME280;5573;49.592;8.662;2022-09-20T01:10:53;100384.75;;;9.19;100.00
11041;BME280;5573;49.592;8.662;2022-09-20T01:13:42;100376.63;;;9.06;100.00
11041;BME280;5573;49.592;8.662;2022-09-20T01:16:31;100374.53;;;9.00;100.00
11041;BME280;5573;49.592;8.662;2022-09-20T01:19:27;100386.94;;;8.93;100.00
11041;BME280;5573;49.592;8.662;2022-09-20T01:22:22;100389.16;;;8.88;100.00
11041;BME280;5573;49.592;8.662;2022-09-20T01:25:14;100386.69;;;8.83;100.00
11041;BME280;5573;49.592;8.662;2022-09-20T01:28:05;100386.19;;;8.77;100.00
11041;BME280;5573;49.592;8.662;2022-09-20T01:31:00;100391.66;;;8.77;100.00
11041;BME280;5573;49.592;8.662;2022-09-20T01:33:52;100383.78;;;8.75;100.00
11041;BME280;5573;49.592;8.662;2022-09-20T01:36:43;100382.09;;;8.71;100.00
11041;BME280;5573;49.592;8.662;2022-09-20T01:39:43;100383.88;;;8.63;100.00
11041;BME280;5573;49.592;8.662;2022-09-20T01:42:36;100350.59;;;8.33;100.00
11041;BME280;5573;49.592;8.662;2022-09-20T01:45:28;100375.19;;;8.45;100.00
11041;BME280;5573;49.592;8.662;2022-09-20T01:48:24;100375.44;;;8.40;100.00
11041;BME280;5573;49.592;8.662;2022-09-20T01:52:00;100384.88;;;8.27;100.00
11041;BME280;5573;49.592;8.662;2022-09-20T01:55:16;100377.41;;;8.11;100.00
11041;BME280;5573;49.592;8.662;2022-09-20T01:58:41;100382.63;;;8.01;100.00
11041;BME280;5573;49.592;8.662;2022-09-20T02:02:25;100382.88;;;7.96;100.00
11041;BME280;5573;49.592;8.662;2022-09-20T02:12:10;100390.34;;;8.11;100.00
11041;BME280;5573;49.592;8.662;2022-09-20T02:15:14;100386.97;;;8.18;100.00
11041;BME280;5573;49.592;8.662;2022-09-20T02:18:16;100389.81;;;8.21;100.00
11041;BME280;5573;49.592;8.662;2022-09-20T02:21:10;100385.22;;;8.25;100.00
11041;BME280;5573;49.592;8.662;2022-09-20T02:24:14;100383.28;;;8.26;100.00
11041;BME280;5573;49.592;8.662;2022-09-20T02:27:11;100382.94;;;8.27;100.00
11041;BME280;5573;49.592;8.662;2022-09-20T02:30:12;100377.19;;;8.32;100.00
11041;BME280;5573;49.592;8.662;2022-09-20T02:33:21;100376.59;;;8.39;100.00
11041;BME280;5573;49.592;8.662;2022-09-20T02:36:21;100378.16;;;8.40;100.00
11041;BME280;5573;49.592;8.662;2022-09-20T02:39:15;100379.00;;;8.41;100.00
11041;BME280;5573;49.592;8.662;2022-09-20T02:42:10;100378.34;;;8.31;100.00
11041;BME280;5573;49.592;8.662;2022-09-20T02:45:05;100383.81;;;8.31;100.00
11041;BME280;5573;49.592;8.662;2022-09-20T02:47:59;100386.13;;;8.29;100.00
11041;BME280;5573;49.592;8.662;2022-09-20T02:50:55;100379.47;;;8.14;100.00
11041;BME280;5573;49.592;8.662;2022-09-20T02:53:53;100386.09;;;8.13;100.00
11041;BME280;5573;49.592;8.662;2022-09-20T02:56:47;100378.13;;;8.08;100.00
11041;BME280;5573;49.592;8.662;2022-09-20T02:59:43;100384.91;;;7.99;100.00
11041;BME280;5573;49.592;8.662;2022-09-20T03:02:44;100387.00;;;7.89;100.00
11041;BME280;5573;49.592;8.662;2022-09-20T03:05:46;100385.66;;;7.83;100.00
11041;BME280;5573;49.592;8.662;2022-09-20T03:08:47;100389.81;;;7.77;100.00
11041;BME280;5573;49.592;8.662;2022-09-20T03:11:43;100392.81;;;7.72;100.00
11041;BME280;5573;49.592;8.662;2022-09-20T03:14:36;100400.56;;;7.70;100.00
11041;BME280;5573;49.592;8.662;2022-09-20T03:17:31;100400.31;;;7.75;100.00
11041;BME280;5573;49.592;8.662;2022-09-20T03:20:29;100282.06;;;7.01;100.00
11041;BME280;5573;49.592;8.662;2022-09-20T03:23:34;100400.66;;;7.73;100.00
11041;BME280;5573;49.592;8.662;2022-09-20T03:26:36;100402.63;;;7.61;100.00
11041;BME280;5573;49.592;8.662;2022-09-20T03:29:39;100405.72;;;7.59;100.00
11041;BME280;5573;49.592;8.662;2022-09-20T03:32:45;100406.56;;;7.47;100.00
11041;BME280;5573;49.592;8.662;2022-09-20T03:35:49;100407.59;;;7.43;100.00
11041;BME280;5573;49.592;8.662;2022-09-20T03:39:08;100404.53;;;7.32;100.00
11041;BME280;5573;49.592;8.662;2022-09-20T03:42:12;100403.19;;;7.26;100.00
11041;BME280;5573;49.592;8.662;2022-09-20T03:45:33;100313.78;;;6.53;100.00
11041;BME280;5573;49.592;8.662;2022-09-20T03:48:40;100403.06;;;7.22;100.00
11041;BME280;5573;49.592;8.662;2022-09-20T03:51:42;100406.03;;;7.17;100.00
11041;BME280;5573;49.592;8.662;2022-09-20T03:54:53;100411.41;;;7.13;100.00
11041;BME280;5573;49.592;8.662;2022-09-20T03:58:10;100416.66;;;7.06;100.00
11041;BME280;5573;49.592;8.662;2022-09-20T04:01:12;100404.91;;;7.06;100.00
11041;BME280;5573;49.592;8.662;2022-09-20T04:04:10;100414.13;;;7.01;100.00
11041;BME280;5573;49.592;8.662;2022-09-20T04:07:14;100408.53;;;6.98;100.00
11041;BME280;5573;49.592;8.662;2022-09-20T04:10:23;100405.13;;;7.01;100.00
11041;BME280;5573;49.592;8.662;2022-09-20T04:13:24;100409.00;;;7.00;100.00
11041;BME280;5573;49.592;8.662;2022-09-20T04:16:24;100408.22;;;6.99;100.00
11041;BME280;5573;49.592;8.662;2022-09-20T04:19:19;100411.06;;;7.03;100.00
11041;BME280;5573;49.592;8.662;2022-09-20T04:22:08;100407.53;;;7.02;100.00
11041;BME280;5573;49.592;8.662;2022-09-20T04:25:02;100392.50;;;6.84;100.00
11041;BME280;5573;49.592;8.662;2022-09-20T04:27:54;100414.59;;;6.91;100.00
11041;BME280;5573;49.592;8.662;2022-09-20T04:30:46;100419.16;;;6.87;100.00
11041;BME280;5573;49.592;8.662;2022-09-20T04:33:41;100420.50;;;6.81;100.00
11041;BME280;5573;49.592;8.662;2022-09-20T04:36:36;100436.25;;;6.71;100.00
11041;BME280;5573;49.592;8.662;2022-09-20T04:39:42;100431.91;;;6.70;100.00
11041;BME280;5573;49.592;8.662;2022-09-20T04:49:54;100429.03;;;6.55;100.00
11041;BME280;5573;49.592;8.662;2022-09-20T04:53:12;100442.56;;;6.51;100.00
11041;BME280;5573;49.592;8.662;2022-09-20T04:56:18;100436.44;;;6.54;100.00
11041;BME280;5573;49.592;8.662;2022-09-20T04:59:07;100442.13;;;6.61;100.00
11041;BME280;5573;49.592;8.662;2022-09-20T05:02:28;100439.50;;;6.53;100.00
11041;BME280;5573;49.592;8.662;2022-09-20T05:09:14;100457.28;;;6.59;100.00
11041;BME280;5573;49.592;8.662;2022-09-20T05:12:41;100453.88;;;6.62;100.00
11041;BME280;5573;49.592;8.662;2022-09-20T05:15:38;100438.81;;;6.43;100.00
11041;BME280;5573;49.592;8.662;2022-09-20T05:18:54;100455.69;;;6.58;100.00
11041;BME280;5573;49.592;8.662;2022-09-20T05:21:55;100462.19;;;6.65;100.00
11041;BME280;5573;49.592;8.662;2022-09-20T05:25:03;100470.16;;;6.58;100.00
11041;BME280;5573;49.592;8.662;2022-09-20T05:27:58;100464.00;;;6.61;100.00
11041;BME280;5573;49.592;8.662;2022-09-20T05:30:52;100475.06;;;6.65;100.00
11041;BME280;5573;49.592;8.662;2022-09-20T05:33:47;100462.19;;;6.65;100.00
11041;BME280;5573;49.592;8.662;2022-09-20T05:36:44;100461.31;;;6.74;100.00
11041;BME280;5573;49.592;8.662;2022-09-20T05:39:40;100463.94;;;6.82;100.00
11041;BME280;5573;49.592;8.662;2022-09-20T05:42:38;100471.56;;;6.89;100.00
11041;BME280;5573;49.592;8.662;2022-09-20T05:45:46;100472.94;;;6.95;100.00
11041;BME280;5573;49.592;8.662;2022-09-20T05:48:39;100477.06;;;7.01;100.00
11041;BME280;5573;49.592;8.662;2022-09-20T05:51:38;100479.22;;;7.08;100.00
11041;BME280;5573;49.592;8.662;2022-09-20T05:54:44;100466.91;;;7.14;100.00
11041;BME280;5573;49.592;8.662;2022-09-20T05:57:45;100481.84;;;7.29;100.00
11041;BME280;5573;49.592;8.662;2022-09-20T06:00:43;100492.22;;;7.36;100.00
11041;BME280;5573;49.592;8.662;2022-09-20T06:03:36;100485.03;;;7.43;100.00
11041;BME280;5573;49.592;8.662;2022-09-20T06:06:28;100482.16;;;7.52;100.00
11041;BME280;5573;49.592;8.662;2022-09-20T06:09:29;100488.97;;;7.70;100.00
11041;BME280;5573;49.592;8.662;2022-09-20T06:12:32;100491.19;;;8.05;100.00
11041;BME280;5573;49.592;8.662;2022-09-20T06:15:33;100484.19;;;8.36;100.00
11041;BME280;5573;49.592;8.662;2022-09-20T06:18:25;100489.78;;;8.68;100.00
11041;BME280;5573;49.592;8.662;2022-09-20T06:21:21;100490.41;;;8.93;100.00
11041;BME280;5573;49.592;8.662;2022-09-20T06:24:20;100493.31;;;9.00;100.00
11041;BME280;5573;49.592;8.662;2022-09-20T06:27:13;100483.22;;;9.04;100.00
11041;BME280;5573;49.592;8.662;2022-09-20T06:30:21;100494.56;;;9.19;100.00
11041;BME280;5573;49.592;8.662;2022-09-20T06:33:14;100497.06;;;9.24;100.00
11041;BME280;5573;49.592;8.662;2022-09-20T06:36:07;100498.63;;;9.41;100.00
11041;BME280;5573;49.592;8.662;2022-09-20T06:39:17;100499.38;;;9.57;100.00
11041;BME280;5573;49.592;8.662;2022-09-20T06:42:24;100497.19;;;9.82;100.00
11041;BME280;5573;49.592;8.662;2022-09-20T06:45:14;100496.03;;;10.03;100.00
11041;BME280;5573;49.592;8.662;2022-09-20T06:48:02;100497.72;;;10.27;100.00
11041;BME280;5573;49.592;8.662;2022-09-20T06:50:51;100495.50;;;10.32;100.00
11041;BME280;5573;49.592;8.662;2022-09-20T06:53:40;100497.66;;;10.43;100.00
11041;BME280;5573;49.592;8.662;2022-09-20T06:56:30;100498.53;;;10.47;100.00
11041;BME280;5573;49.592;8.662;2022-09-20T06:59:19;100497.50;;;10.55;100.00
11041;BME280;5573;49.592;8.662;2022-09-20T07:02:09;100497.38;;;10.48;100.00
11041;BME280;5573;49.592;8.662;2022-09-20T07:04:57;100497.06;;;10.53;100.00
11041;BME280;5573;49.592;8.662;2022-09-20T07:07:45;100505.47;;;10.41;100.00
11041;BME280;5573;49.592;8.662;2022-09-20T07:10:33;100506.66;;;10.40;100.00
11041;BME280;5573;49.592;8.662;2022-09-20T07:13:21;100516.75;;;10.55;100.00
11041;BME280;5573;49.592;8.662;2022-09-20T07:16:11;100513.34;;;10.62;100.00
11041;BME280;5573;49.592;8.662;2022-09-20T07:19:02;100517.16;;;10.76;100.00
11041;BME280;5573;49.592;8.662;2022-09-20T07:21:51;100517.56;;;10.78;100.00
11041;BME280;5573;49.592;8.662;2022-09-20T07:24:39;100513.47;;;10.92;100.00
11041;BME280;5573;49.592;8.662;2022-09-20T07:27:27;100518.00;;;11.04;100.00
11041;BME280;5573;49.592;8.662;2022-09-20T07:30:17;100482.06;;;10.93;100.00
11041;BME280;5573;49.592;8.662;2022-09-20T07:33:05;100519.13;;;11.22;100.00
11041;BME280;5573;49.592;8.662;2022-09-20T07:35:55;100523.53;;;11.53;100.00
11041;BME280;5573;49.592;8.662;2022-09-20T07:38:46;100531.75;;;11.76;100.00
11041;BME280;5573;49.592;8.662;2022-09-20T07:41:34;100532.34;;;11.89;100.00
11041;BME280;5573;49.592;8.662;2022-09-20T07:44:22;100532.00;;;12.25;100.00
11041;BME280;5573;49.592;8.662;2022-09-20T07:47:13;100539.16;;;12.63;100.00
11041;BME280;5573;49.592;8.662;2022-09-20T07:50:01;100534.38;;;12.60;100.00
11041;BME280;5573;49.592;8.662;2022-09-20T07:52:51;100544.56;;;12.52;100.00
11041;BME280;5573;49.592;8.662;2022-09-20T07:55:42;100542.09;;;12.44;100.00
11041;BME280;5573;49.592;8.662;2022-09-20T07:58:31;100545.47;;;12.30;100.00
11041;BME280;5573;49.592;8.662;2022-09-20T08:01:19;100543.31;;;12.12;100.00
11041;BME280;5573;49.592;8.662;2022-09-20T08:04:09;100536.72;;;12.24;100.00
11041;BME280;5573;49.592;8.662;2022-09-20T08:06:57;100548.72;;;12.35;100.00
11041;BME280;5573;49.592;8.662;2022-09-20T08:09:48;100545.31;;;12.49;100.00
11041;BME280;5573;49.592;8.662;2022-09-20T08:12:36;100554.38;;;12.50;100.00
11041;BME280;5573;49.592;8.662;2022-09-20T08:15:44;100551.72;;;12.57;100.00
11041;BME280;5573;49.592;8.662;2022-09-20T08:18:33;100557.72;;;12.66;100.00
11041;BME280;5573;49.592;8.662;2022-09-20T08:21:21;100547.13;;;13.09;100.00
11041;BME280;5573;49.592;8.662;2022-09-20T08:24:09;100551.91;;;13.16;100.00
11041;BME280;5573;49.592;8.662;2022-09-20T08:26:59;100556.91;;;13.44;100.00
11041;BME280;5573;49.592;8.662;2022-09-20T08:29:47;100551.97;;;13.71;100.00
11041;BME280;5573;49.592;8.662;2022-09-20T08:32:37;100553.22;;;13.85;100.00
11041;BME280;5573;49.592;8.662;2022-09-20T08:35:26;100558.34;;;13.79;100.00
11041;BME280;5573;49.592;8.662;2022-09-20T08:38:15;100553.75;;;14.05;100.00
11041;BME280;5573;49.592;8.662;2022-09-20T08:41:25;100556.16;;;14.13;100.00
11041;BME280;5573;49.592;8.662;2022-09-20T08:44:22;100541.69;;;13.72;100.00
11041;BME280;5573;49.592;8.662;2022-09-20T08:47:16;100557.00;;;14.21;100.00
11041;BME280;5573;49.592;8.662;2022-09-20T08:50:09;100555.41;;;14.20;100.00
11041;BME280;5573;49.592;8.662;2022-09-20T08:53:04;100565.91;;;14.70;100.00
11041;BME280;5573;49.592;8.662;2022-09-20T08:55:51;100565.16;;;14.80;100.00
11041;BME280;5573;49.592;8.662;2022-09-20T08:58:39;100562.41;;;15.05;100.00
11041;BME280;5573;49.592;8.662;2022-09-20T09:01:29;100563.63;;;15.33;100.00
11041;BME280;5573;49.592;8.662;2022-09-20T09:04:21;100549.78;;;15.18;90.40
11041;BME280;5573;49.592;8.662;2022-09-20T09:07:12;100550.16;;;14.99;100.00
11041;BME280;5573;49.592;8.662;2022-09-20T09:10:01;100544.97;;;14.90;100.00
11041;BME280;5573;49.592;8.662;2022-09-20T09:12:49;100554.06;;;14.80;98.09
11041;BME280;5573;49.592;8.662;2022-09-20T09:15:39;100548.13;;;14.85;100.00
11041;BME280;5573;49.592;8.662;2022-09-20T09:18:34;100548.56;;;15.19;94.30
11041;BME280;5573;49.592;8.662;2022-09-20T09:21:24;100543.41;;;15.11;96.55
11041;BME280;5573;49.592;8.662;2022-09-20T09:24:16;100552.13;;;15.02;99.41
11041;BME280;5573;49.592;8.662;2022-09-20T09:27:12;100546.59;;;15.45;98.54
11041;BME280;5573;49.592;8.662;2022-09-20T09:30:18;100553.28;;;15.91;89.47
11041;BME280;5573;49.592;8.662;2022-09-20T09:33:24;100555.66;;;16.03;93.21
11041;BME280;5573;49.592;8.662;2022-09-20T09:36:20;100561.47;;;16.34;86.82
11041;BME280;5573;49.592;8.662;2022-09-20T09:39:14;100551.97;;;16.38;81.29
11041;BME280;5573;49.592;8.662;2022-09-20T09:42:18;100558.44;;;15.96;77.83
11041;BME280;5573;49.592;8.662;2022-09-20T09:45:10;100549.31;;;15.95;84.70
11041;BME280;5573;49.592;8.662;2022-09-20T09:47:59;100555.66;;;16.07;82.36
11041;BME280;5573;49.592;8.662;2022-09-20T09:50:49;100558.00;;;16.08;80.92
11041;BME280;5573;49.592;8.662;2022-09-20T09:53:40;100552.06;;;16.13;82.97
11041;BME280;5573;49.592;8.662;2022-09-20T09:56:40;100552.91;;;15.85;83.46
11041;BME280;5573;49.592;8.662;2022-09-20T09:59:43;100556.88;;;15.88;78.34
11041;BME280;5573;49.592;8.662;2022-09-20T10:03:06;100554.09;;;15.88;82.15
11041;BME280;5573;49.592;8.662;2022-09-20T10:06:15;100543.38;;;15.93;89.03
11041;BME280;5573;49.592;8.662;2022-09-20T10:09:17;100546.16;;;15.93;82.32
11041;BME280;5573;49.592;8.662;2022-09-20T10:12:18;100552.47;;;16.04;85.67
11041;BME280;5573;49.592;8.662;2022-09-20T10:15:22;100538.19;;;16.13;85.07
11041;BME280;5573;49.592;8.662;2022-09-20T10:18:28;100533.47;;;15.89;83.83
11041;BME280;5573;49.592;8.662;2022-09-20T10:21:36;100531.94;;;15.62;86.22
11041;BME280;5573;49.592;8.662;2022-09-20T10:24:39;100533.13;;;15.69;76.30
11041;BME280;5573;49.592;8.662;2022-09-20T10:27:46;100522.38;;;15.92;73.98
11041;BME280;5573;49.592;8.662;2022-09-20T10:30:46;100523.72;;;16.51;74.77
11041;BME280;5573;49.592;8.662;2022-09-20T10:33:48;100536.69;;;16.82;67.07
11041;BME280;5573;49.592;8.662;2022-09-20T10:36:47;100525.53;;;17.35;62.46
11041;BME280;5573;49.592;8.662;2022-09-20T10:39:39;100528.09;;;18.01;65.02
11041;BME280;5573;49.592;8.662;2022-09-20T10:42:33;100529.94;;;18.15;60.37
11041;BME280;5573;49.592;8.662;2022-09-20T10:45:48;100523.03;;;18.23;59.09
11041;BME280;5573;49.592;8.662;2022-09-20T10:49:03;100526.31;;;17.84;58.52
11041;BME280;5573;49.592;8.662;2022-09-20T10:52:09;100529.88;;;17.84;59.78
11041;BME280;5573;49.592;8.662;2022-09-20T10:58:40;100524.16;;;17.99;60.33
11041;BME280;5573;49.592;8.662;2022-09-20T11:01:40;100532.78;;;17.70;60.42
11041;BME280;5573;49.592;8.662;2022-09-20T11:04:50;100527.28;;;17.63;62.61
11041;BME280;5573;49.592;8.662;2022-09-20T11:07:46;100540.94;;;16.94;64.15
11041;BME280;5573;49.592;8.662;2022-09-20T11:10:43;100537.97;;;16.56;72.40
11041;BME280;5573;49.592;8.662;2022-09-20T11:13:38;100546.94;;;15.94;74.14
11041;BME280;5573;49.592;8.662;2022-09-20T11:16:33;100543.81;;;15.45;79.57
11041;BME280;5573;49.592;8.662;2022-09-20T11:19:25;100543.81;;;15.67;79.38
11041;BME280;5573;49.592;8.662;2022-09-20T11:22:22;100555.69;;;15.78;73.55
11041;BME280;5573;49.592;8.662;2022-09-20T11:25:15;100548.16;;;15.57;68.52
11041;BME280;5573;49.592;8.662;2022-09-20T11:28:13;100553.75;;;15.75;64.33
11041;BME280;5573;49.592;8.662;2022-09-20T11:31:07;100543.38;;;15.93;65.46
11041;BME280;5573;49.592;8.662;2022-09-20T11:33:59;100546.53;;;15.99;67.68
11041;BME280;5573;49.592;8.662;2022-09-20T11:36:52;100550.50;;;16.01;62.89
11041;BME280;5573;49.592;8.662;2022-09-20T11:39:48;100556.44;;;16.00;64.15
11041;BME280;5573;49.592;8.662;2022-09-20T11:42:39;100552.91;;;15.92;68.27
11041;BME280;5573;49.592;8.662;2022-09-20T11:45:29;100545.41;;;15.75;63.55
11041;BME280;5573;49.592;8.662;2022-09-20T11:48:23;100512.53;;;15.62;65.10
11041;BME280;5573;49.592;8.662;2022-09-20T11:51:34;100556.00;;;16.16;72.00
11041;BME280;5573;49.592;8.662;2022-09-20T11:54:45;100547.59;;;16.37;72.71
11041;BME280;5573;49.592;8.662;2022-09-20T11:57:40;100539.53;;;16.61;71.70
11041;BME280;5573;49.592;8.662;2022-09-20T12:00:32;100549.75;;;16.85;66.30
11041;BME280;5573;49.592;8.662;2022-09-20T12:03:27;100547.94;;;17.20;64.06
11041;BME280;5573;49.592;8.662;2022-09-20T12:06:25;100546.53;;;16.91;59.15
11041;BME280;5573;49.592;8.662;2022-09-20T12:09:22;100535.56;;;17.70;57.98
11041;BME280;5573;49.592;8.662;2022-09-20T12:12:22;100540.69;;;17.26;51.24
11041;BME280;5573;49.592;8.662;2022-09-20T12:15:23;100538.69;;;17.31;51.86
11041;BME280;5573;49.592;8.662;2022-09-20T12:18:27;100529.06;;;16.94;51.49
11041;BME280;5573;49.592;8.662;2022-09-20T12:21:20;100534.59;;;16.94;52.08
11041;BME280;5573;49.592;8.662;2022-09-20T12:24:16;100528.22;;;17.00;52.13
11041;BME280;5573;49.592;8.662;2022-09-20T12:27:20;100528.88;;;17.15;52.59
11041;BME280;5573;49.592;8.662;2022-09-20T12:30:18;100536.38;;;17.22;53.92
11041;BME280;5573;49.592;8.662;2022-09-20T12:33:17;100534.34;;;17.26;52.85
11041;BME280;5573;49.592;8.662;2022-09-20T12:36:24;100529.44;;;17.44;52.84
11041;BME280;5573;49.592;8.662;2022-09-20T12:39:15;100520.78;;;17.77;51.65
11041;BME280;5573;49.592;8.662;2022-09-20T12:42:25;100526.78;;;17.75;49.47
11041;BME280;5573;49.592;8.662;2022-09-20T12:45:16;100495.19;;;17.55;51.67
11041;BME280;5573;49.592;8.662;2022-09-20T12:48:18;100519.22;;;17.76;51.40
11041;BME280;5573;49.592;8.662;2022-09-20T12:51:18;100518.22;;;17.52;49.67
11041;BME280;5573;49.592;8.662;2022-09-20T12:54:26;100511.38;;;17.63;49.91
11041;BME280;5573;49.592;8.662;2022-09-20T12:57:17;100516.03;;;17.32;51.34
11041;BME280;5573;49.592;8.662;2022-09-20T13:00:29;100516.75;;;17.43;49.67
11041;BME280;5573;49.592;8.662;2022-09-20T13:03:26;100513.47;;;17.52;50.13
11041;BME280;5573;49.592;8.662;2022-09-20T13:06:23;100505.81;;;18.01;49.68
11041;BME280;5573;49.592;8.662;2022-09-20T13:09:12;100508.28;;;18.30;47.01
11041;BME280;5573;49.592;8.662;2022-09-20T13:12:01;100513.66;;;18.72;49.19
11041;BME280;5573;49.592;8.662;2022-09-20T13:14:30;100486.94;;;18.47;48.57
11041;BME280;5573;49.592;8.662;2022-09-20T13:17:01;100512.41;;;18.15;49.70
11041;BME280;5573;49.592;8.662;2022-09-20T13:19:33;100512.91;;;17.68;48.94
11041;BME280;5573;49.592;8.662;2022-09-20T13:22:07;100506.03;;;17.42;50.98
11041;BME280;5573;49.592;8.662;2022-09-20T13:24:37;100496.75;;;17.56;52.52
11041;BME280;5573;49.592;8.662;2022-09-20T13:27:10;100501.00;;;17.67;52.67
11041;BME280;5573;49.592;8.662;2022-09-20T13:29:45;100501.00;;;17.26;53.68
11041;BME280;5573;49.592;8.662;2022-09-20T13:32:16;100458.38;;;16.95;53.91
11041;BME280;5573;49.592;8.662;2022-09-20T13:34:45;100506.75;;;17.01;54.72
11041;BME280;5573;49.592;8.662;2022-09-20T13:37:17;100515.47;;;17.03;55.64
11041;BME280;5573;49.592;8.662;2022-09-20T13:39:46;100503.50;;;17.13;55.30
11041;BME280;5573;49.592;8.662;2022-09-20T13:42:19;100505.66;;;16.88;56.37
11041;BME280;5573;49.592;8.662;2022-09-20T13:44:47;100508.00;;;16.93;55.63
11041;BME280;5573;49.592;8.662;2022-09-20T13:47:23;100503.75;;;16.74;53.82
11041;BME280;5573;49.592;8.662;2022-09-20T13:49:58;100508.44;;;16.88;56.27
11041;BME280;5573;49.592;8.662;2022-09-20T13:52:28;100501.38;;;16.72;55.64
11041;BME280;5573;49.592;8.662;2022-09-20T13:54:56;100507.44;;;16.53;57.12
11041;BME280;5573;49.592;8.662;2022-09-20T13:57:26;100504.78;;;16.31;58.34
11041;BME280;5573;49.592;8.662;2022-09-20T13:59:55;100511.19;;;16.17;58.30
11041;BME280;5573;49.592;8.662;2022-09-20T14:02:26;100508.84;;;16.09;57.08
11041;BME280;5573;49.592;8.662;2022-09-20T14:04:58;100509.72;;;15.77;56.52
11041;BME280;5573;49.592;8.662;2022-09-20T14:07:26;100508.16;;;15.69;58.10
11041;BME280;5573;49.592;8.662;2022-09-20T14:09:56;100510.56;;;15.41;59.03
11041;BME280;5573;49.592;8.662;2022-09-20T14:12:25;100519.25;;;15.76;60.89
11041;BME280;5573;49.592;8.662;2022-09-20T14:14:54;100517.19;;;16.01;61.12
11041;BME280;5573;49.592;8.662;2022-09-20T14:17:23;100512.50;;;15.80;58.66
11041;BME280;5573;49.592;8.662;2022-09-20T14:19:53;100507.38;;;15.72;58.93
11041;BME280;5573;49.592;8.662;2022-09-20T14:22:26;100510.50;;;15.70;59.25
11041;BME280;5573;49.592;8.662;2022-09-20T14:24:59;100509.94;;;16.36;57.60
11041;BME280;5573;49.592;8.662;2022-09-20T14:27:28;100500.03;;;16.95;55.88
11041;BME280;5573;49.592;8.662;2022-09-20T14:29:57;100446.31;;;17.12;53.75
11041;BME280;5573;49.592;8.662;2022-09-20T14:32:37;100490.91;;;17.43;54.32
11041;BME280;5573;49.592;8.662;2022-09-20T14:35:13;100496.78;;;17.52;54.43
11041;BME280;5573;49.592;8.662;2022-09-20T14:37:45;100491.97;;;17.11;52.92
11041;BME280;5573;49.592;8.662;2022-09-20T14:40:23;100484.66;;;16.79;55.05
11041;BME280;5573;49.592;8.662;2022-09-20T14:42:54;100455.22;;;16.30;53.74
11041;BME280;5573;49.592;8.662;2022-09-20T14:45:25;100497.19;;;16.42;54.87
11041;BME280;5573;49.592;8.662;2022-09-20T14:47:59;100497.91;;;16.57;54.22
11041;BME280;5573;49.592;8.662;2022-09-20T14:50:37;100475.41;;;16.34;54.35
11041;BME280;5573;49.592;8.662;2022-09-20T14:53:23;100498.16;;;16.03;55.86
11041;BME280;5573;49.592;8.662;2022-09-20T14:55:57;100492.16;;;16.16;57.72
11041;BME280;5573;49.592;8.662;2022-09-20T14:58:25;100486.19;;;16.21;55.19
11041;BME280;5573;49.592;8.662;2022-09-20T15:00:55;100477.75;;;16.42;57.08
11041;BME280;5573;49.592;8.662;2022-09-20T15:03:29;100489.53;;;16.64;56.91
11041;BME280;5573;49.592;8.662;2022-09-20T15:05:58;100486.25;;;16.84;56.36
11041;BME280;5573;49.592;8.662;2022-09-20T15:08:27;100482.72;;;16.73;57.32
11041;BME280;5573;49.592;8.662;2022-09-20T15:10:55;100485.84;;;16.85;55.81
11041;BME280;5573;49.592;8.662;2022-09-20T15:13:22;100488.25;;;16.76;55.81
11041;BME280;5573;49.592;8.662;2022-09-20T15:15:52;100484.88;;;16.47;56.73
11041;BME280;5573;49.592;8.662;2022-09-20T15:18:21;100476.94;;;16.45;56.99
11041;BME280;5573;49.592;8.662;2022-09-20T15:20:49;100487.25;;;16.49;59.82
11041;BME280;5573;49.592;8.662;2022-09-20T15:23:17;100486.13;;;16.35;62.35
11041;BME280;5573;49.592;8.662;2022-09-20T15:25:48;100485.38;;;16.24;64.11
11041;BME280;5573;49.592;8.662;2022-09-20T15:28:17;100490.66;;;15.97;65.43
11041;BME280;5573;49.592;8.662;2022-09-20T15:30:46;100481.59;;;15.78;71.57
11041;BME280;5573;49.592;8.662;2022-09-20T15:33:14;100484.38;;;15.68;68.91